createdAt,value
2023-05-01T00:01:48.489Z,2.03
2023-05-01T00:04:50.946Z,2.33
2023-05-01T00:07:53.484Z,1.77
2023-05-01T00:10:56.050Z,1.95
2023-05-01T00:13:58.377Z,2.35
2023-05-01T00:17:01.151Z,2.10
2023-05-01T00:20:05.406Z,1.67
2023-05-01T00:23:08.721Z,2.33
2023-05-01T00:26:11.085Z,2.60
2023-05-01T00:29:17.015Z,2.05
2023-05-01T00:32:19.739Z,2.30
2023-05-01T00:35:22.705Z,2.50
2023-05-01T00:38:25.071Z,2.00
2023-05-01T00:41:27.422Z,2.10
2023-05-01T00:44:29.771Z,2.33
2023-05-01T00:47:33.105Z,2.15
2023-05-01T00:50:35.582Z,2.93
2023-05-01T00:53:37.964Z,3.43
2023-05-01T00:56:40.342Z,2.13
2023-05-01T00:59:42.802Z,1.98
2023-05-01T01:02:46.881Z,2.05
2023-05-01T01:06:14.978Z,2.10
2023-05-01T01:09:41.392Z,2.20
2023-05-01T01:12:55.027Z,2.20
2023-05-01T01:16:05.964Z,1.65
2023-05-01T01:19:20.782Z,2.35
2023-05-01T01:22:24.417Z,1.80
2023-05-01T01:25:45.713Z,2.03
2023-05-01T01:29:04.109Z,1.52
2023-05-01T01:32:36.364Z,1.83
2023-05-01T01:35:42.524Z,2.42
2023-05-01T01:38:48.188Z,2.87
2023-05-01T01:41:52.491Z,1.70
2023-05-01T01:44:59.432Z,1.63
2023-05-01T01:48:03.470Z,2.67
2023-05-01T01:51:09.357Z,2.03
2023-05-01T01:54:13.320Z,2.03
2023-05-01T01:57:17.909Z,1.80
2023-05-01T02:00:22.976Z,1.90
2023-05-01T02:03:26.849Z,2.33
2023-05-01T02:06:31.750Z,2.58
2023-05-01T02:09:34.861Z,1.47
2023-05-01T02:12:37.780Z,2.17
2023-05-01T02:15:41.046Z,1.73
2023-05-01T02:18:43.807Z,1.80
2023-05-01T02:21:46.861Z,1.65
2023-05-01T02:24:49.698Z,1.87
2023-05-01T02:28:02.080Z,1.80
2023-05-01T02:31:04.427Z,1.90
2023-05-01T02:34:06.817Z,1.90
2023-05-01T02:37:11.626Z,1.45
2023-05-01T02:40:15.965Z,2.07
2023-05-01T02:43:20.646Z,1.80
2023-05-01T02:46:24.695Z,1.60
2023-05-01T02:49:27.709Z,2.05
2023-05-01T02:52:30.643Z,1.90
2023-05-01T02:55:50.946Z,1.83
2023-05-01T02:58:53.760Z,2.10
2023-05-01T03:01:56.152Z,1.70
2023-05-01T03:04:58.643Z,1.88
2023-05-01T03:08:01.085Z,2.78
2023-05-01T03:11:08.003Z,2.07
2023-05-01T03:14:11.319Z,1.60
2023-05-01T03:17:14.205Z,1.50
2023-05-01T03:20:16.681Z,2.10
2023-05-01T03:23:19.236Z,2.47
2023-05-01T03:26:21.615Z,1.70
2023-05-01T03:29:26.024Z,1.90
2023-05-01T03:32:29.583Z,1.63
2023-05-01T03:35:32.616Z,2.10
2023-05-01T03:38:35.043Z,1.50
2023-05-01T03:41:46.364Z,3.00
2023-05-01T03:45:04.441Z,1.60
2023-05-01T03:48:06.861Z,2.08
2023-05-01T03:51:09.460Z,1.75
2023-05-01T03:54:12.615Z,2.00
2023-05-01T03:57:29.781Z,2.20
2023-05-01T04:00:32.975Z,2.03
2023-05-01T04:03:35.639Z,1.55
2023-05-01T04:06:38.111Z,1.40
2023-05-01T04:09:41.876Z,1.58
2023-05-01T04:12:44.581Z,1.53
2023-05-01T04:15:47.083Z,1.67
2023-05-01T04:18:49.530Z,1.70
2023-05-01T04:21:52.229Z,1.20
2023-05-01T04:24:55.029Z,1.17
2023-05-01T04:27:57.818Z,1.27
2023-05-01T04:31:03.078Z,1.40
2023-05-01T04:34:05.555Z,1.80
2023-05-01T04:37:09.169Z,1.05
2023-05-01T04:40:12.226Z,1.50
2023-05-01T04:43:15.543Z,1.20
2023-05-01T04:46:18.399Z,1.27
2023-05-01T04:49:22.367Z,1.05
2023-05-01T04:52:24.849Z,1.23
2023-05-01T04:55:32.202Z,1.20
2023-05-01T04:58:42.258Z,0.93
2023-05-01T05:01:48.820Z,1.23
2023-05-01T05:04:53.888Z,1.35
2023-05-01T05:07:56.617Z,0.90
2023-05-01T05:11:01.947Z,1.10
2023-05-01T05:14:22.351Z,1.07
2023-05-01T05:17:25.765Z,1.00
2023-05-01T05:20:28.319Z,1.10
2023-05-01T05:23:31.228Z,0.90
2023-05-01T05:26:33.593Z,1.00
2023-05-01T05:29:38.398Z,1.00
2023-05-01T05:32:40.781Z,0.90
2023-05-01T05:35:43.772Z,0.80
2023-05-01T05:38:46.657Z,1.17
2023-05-01T05:41:53.983Z,1.10
2023-05-01T05:44:56.648Z,1.00
2023-05-01T05:47:59.099Z,1.03
2023-05-01T05:51:02.967Z,1.10
2023-05-01T05:54:05.345Z,1.05
2023-05-01T05:57:10.655Z,0.98
2023-05-01T06:00:19.043Z,0.97
2023-05-01T06:03:25.192Z,0.97
2023-05-01T06:06:31.511Z,0.80
2023-05-01T06:09:34.169Z,0.90
2023-05-01T06:12:37.869Z,1.08
2023-05-01T06:15:43.962Z,0.93
2023-05-01T06:18:47.363Z,0.83
2023-05-01T06:21:49.699Z,1.35
2023-05-01T06:24:52.144Z,1.15
2023-05-01T06:27:54.866Z,0.95
2023-05-01T06:30:59.196Z,1.23
2023-05-01T06:34:02.409Z,0.90
2023-05-01T06:37:17.914Z,1.00
2023-05-01T06:40:20.366Z,1.08
2023-05-01T06:43:22.963Z,1.20
2023-05-01T06:46:28.040Z,1.07
2023-05-01T06:49:30.462Z,0.70
2023-05-01T06:52:32.887Z,1.05
2023-05-01T06:55:35.923Z,1.00
2023-05-01T06:58:38.378Z,1.40
2023-05-01T07:01:40.924Z,0.80
2023-05-01T07:04:44.495Z,1.10
2023-05-01T07:07:57.975Z,1.05
2023-05-01T07:11:03.491Z,1.00
2023-05-01T07:14:06.092Z,0.88
2023-05-01T07:17:09.312Z,1.00
2023-05-01T07:20:12.717Z,1.07
2023-05-01T07:23:15.075Z,1.05
2023-05-01T07:26:17.500Z,1.20
2023-05-01T07:29:19.850Z,0.93
2023-05-01T07:32:22.255Z,1.30
2023-05-01T07:35:24.632Z,0.83
2023-05-01T07:38:27.125Z,0.93
2023-05-01T07:41:29.456Z,0.93
2023-05-01T07:44:31.802Z,0.90
2023-05-01T07:47:34.134Z,1.13
2023-05-01T07:50:36.564Z,1.33
2023-05-01T07:53:40.786Z,0.90
2023-05-01T07:56:43.139Z,1.20
2023-05-01T07:59:45.524Z,0.80
2023-05-01T08:02:48.470Z,1.05
2023-05-01T08:05:51.191Z,0.97
2023-05-01T08:08:53.522Z,0.93
2023-05-01T08:11:55.824Z,0.90
2023-05-01T08:14:58.172Z,1.10
2023-05-01T08:18:00.732Z,0.93
2023-05-01T08:21:03.609Z,0.80
2023-05-01T08:24:09.363Z,1.20
2023-05-01T08:27:11.774Z,0.85
2023-05-01T08:30:14.168Z,0.60
2023-05-01T08:33:16.624Z,1.15
2023-05-01T08:36:21.176Z,1.63
2023-05-01T08:39:23.724Z,1.17
2023-05-01T08:42:26.443Z,0.95
2023-05-01T08:45:31.150Z,0.88
2023-05-01T08:48:35.650Z,1.07
2023-05-01T08:51:38.591Z,0.90
2023-05-01T08:54:45.318Z,1.15
2023-05-01T08:57:48.621Z,1.20
2023-05-01T09:00:51.207Z,0.80
2023-05-01T09:03:53.962Z,1.00
2023-05-01T09:06:56.574Z,0.83
2023-05-01T09:09:59.485Z,1.45
2023-05-01T09:13:02.420Z,1.00
2023-05-01T09:16:05.689Z,1.08
2023-05-01T09:19:08.609Z,1.00
2023-05-01T09:22:11.269Z,0.83
2023-05-01T09:25:13.623Z,1.02
2023-05-01T09:28:16.028Z,0.75
2023-05-01T09:31:27.735Z,1.15
2023-05-01T09:34:30.136Z,1.57
2023-05-01T09:37:33.726Z,1.20
2023-05-01T09:40:36.084Z,0.82
2023-05-01T09:43:39.069Z,1.00
2023-05-01T09:46:43.978Z,1.10
2023-05-01T09:49:48.405Z,1.20
2023-05-01T09:52:52.887Z,1.17
2023-05-01T09:56:02.281Z,1.17
2023-05-01T09:59:17.940Z,1.08
2023-05-01T10:02:29.827Z,1.00
2023-05-01T10:05:44.038Z,0.87
2023-05-01T10:08:50.742Z,1.10
2023-05-01T10:11:56.182Z,0.77
2023-05-01T10:15:00.480Z,1.10
2023-05-01T10:18:04.968Z,0.90
2023-05-01T10:21:07.733Z,0.80
2023-05-01T10:24:11.228Z,0.73
2023-05-01T10:27:13.862Z,1.05
2023-05-01T10:30:17.686Z,0.95
2023-05-01T10:33:20.022Z,0.80
2023-05-01T10:36:28.737Z,1.10
2023-05-01T10:39:36.066Z,0.97
2023-05-01T10:43:17.022Z,1.90
2023-05-01T10:46:19.421Z,0.90
2023-05-01T10:49:22.153Z,0.90
2023-05-01T10:52:24.520Z,1.10
2023-05-01T10:55:36.742Z,1.20
2023-05-01T10:58:39.030Z,1.17
2023-05-01T11:01:44.976Z,0.80
2023-05-01T11:04:50.865Z,1.20
2023-05-01T11:08:33.867Z,0.90
2023-05-01T11:11:36.244Z,1.13
2023-05-01T11:14:54.348Z,0.90
2023-05-01T11:17:58.034Z,0.50
2023-05-01T11:21:02.230Z,1.00
2023-05-01T11:24:08.103Z,1.00
2023-05-01T11:27:13.702Z,1.03
2023-05-01T11:30:16.356Z,1.13
2023-05-01T11:33:23.230Z,1.05
2023-05-01T11:36:27.293Z,1.20
2023-05-01T11:39:29.690Z,1.33
2023-05-01T11:42:32.062Z,1.23
2023-05-01T11:45:36.205Z,0.90
2023-05-01T11:48:39.386Z,1.23
2023-05-01T11:51:41.747Z,0.80
2023-05-01T11:54:50.172Z,0.87
2023-05-01T11:57:53.339Z,1.10
2023-05-01T12:00:55.784Z,1.00
2023-05-01T12:03:58.483Z,0.93
2023-05-01T12:07:00.930Z,1.02
2023-05-01T12:10:04.632Z,0.77
2023-05-01T12:13:08.322Z,0.83
2023-05-01T12:16:11.600Z,1.40
2023-05-01T12:19:15.628Z,0.70
2023-05-01T12:22:18.247Z,1.05
2023-05-01T12:25:20.892Z,1.07
2023-05-01T12:28:23.230Z,0.77
2023-05-01T12:31:26.444Z,0.60
2023-05-01T12:34:33.705Z,0.80
2023-05-01T12:37:36.268Z,1.10
2023-05-01T12:40:40.062Z,1.53
2023-05-01T12:43:44.300Z,0.90
2023-05-01T12:46:54.145Z,0.70
2023-05-01T12:50:03.222Z,1.10
2023-05-01T12:53:07.218Z,0.80
2023-05-01T12:56:09.588Z,0.80
2023-05-01T12:59:26.939Z,1.13
2023-05-01T13:02:33.564Z,0.85
2023-05-01T13:05:36.062Z,0.80
2023-05-01T13:08:40.246Z,0.90
2023-05-01T13:11:42.574Z,1.10
2023-05-01T13:14:45.110Z,1.20
2023-05-01T13:17:47.768Z,1.77
2023-05-01T13:20:50.172Z,0.85
2023-05-01T13:24:00.368Z,1.05
2023-05-01T13:27:05.025Z,1.33
2023-05-01T13:30:08.207Z,0.80
2023-05-01T13:33:11.260Z,1.20
2023-05-01T13:36:25.134Z,1.30
2023-05-01T13:39:29.379Z,1.00
2023-05-01T13:42:31.791Z,0.87
2023-05-01T13:45:34.132Z,1.00
2023-05-01T13:48:36.477Z,0.70
2023-05-01T13:51:43.502Z,1.65
2023-05-01T13:54:47.631Z,0.77
2023-05-01T13:57:50.104Z,0.73
2023-05-01T14:00:52.706Z,1.00
2023-05-01T14:04:00.511Z,0.70
2023-05-01T14:07:02.988Z,1.10
2023-05-01T14:10:09.079Z,1.38
2023-05-01T14:13:11.505Z,1.40
2023-05-01T14:16:27.463Z,1.60
2023-05-01T14:19:29.872Z,1.00
2023-05-01T14:22:45.794Z,0.93
2023-05-01T14:25:49.299Z,1.05
2023-05-01T14:28:51.806Z,0.90
2023-05-01T14:31:55.559Z,1.00
2023-05-01T14:34:59.819Z,1.00
2023-05-01T14:38:13.799Z,0.90
2023-05-01T14:41:18.696Z,0.80
2023-05-01T14:44:23.609Z,1.87
2023-05-01T14:47:26.336Z,0.70
2023-05-01T14:50:28.767Z,0.63
2023-05-01T14:53:34.197Z,0.68
2023-05-01T14:56:36.568Z,0.80
2023-05-01T14:59:39.021Z,0.70
2023-05-01T15:02:41.515Z,0.80
2023-05-01T15:05:46.245Z,0.80
2023-05-01T15:08:48.692Z,0.90
2023-05-01T15:11:51.117Z,0.73
2023-05-01T15:14:53.507Z,0.67
2023-05-01T15:17:55.869Z,0.97
2023-05-01T15:20:58.275Z,0.57
2023-05-01T15:24:00.604Z,0.65
2023-05-01T15:27:03.272Z,0.80
2023-05-01T15:30:06.320Z,0.67
2023-05-01T15:33:08.730Z,0.90
2023-05-01T15:36:11.200Z,0.77
2023-05-01T15:39:13.526Z,0.70
2023-05-01T15:42:15.909Z,0.80
2023-05-01T15:45:18.295Z,0.73
2023-05-01T15:48:20.899Z,0.70
2023-05-01T15:51:23.243Z,0.73
2023-05-01T15:54:27.756Z,0.63
2023-05-01T15:57:31.297Z,0.60
2023-05-01T16:00:35.890Z,0.60
2023-05-01T16:03:40.750Z,0.97
2023-05-01T16:06:43.426Z,1.13
2023-05-01T16:09:45.883Z,1.35
2023-05-01T16:12:50.621Z,0.65
2023-05-01T16:15:53.057Z,0.60
2023-05-01T16:18:57.253Z,1.10
2023-05-01T16:22:05.960Z,0.80
2023-05-01T16:25:09.649Z,0.70
2023-05-01T16:28:12.770Z,0.82
2023-05-01T16:31:26.647Z,1.00
2023-05-01T16:34:29.738Z,0.90
2023-05-01T16:37:34.070Z,0.85
2023-05-01T16:40:37.197Z,0.90
2023-05-01T16:43:39.569Z,1.00
2023-05-01T16:46:43.585Z,0.70
2023-05-01T16:49:46.790Z,0.70
2023-05-01T16:52:50.023Z,0.70
2023-05-01T16:55:53.330Z,0.60
2023-05-01T16:58:56.406Z,0.70
2023-05-01T17:01:58.822Z,0.70
2023-05-01T17:05:02.545Z,0.90
2023-05-01T17:08:05.034Z,1.00
2023-05-01T17:11:07.565Z,0.90
2023-05-01T17:14:09.986Z,0.70
2023-05-01T17:17:12.575Z,0.60
2023-05-01T17:20:14.992Z,0.87
2023-05-01T17:23:17.378Z,0.80
2023-05-01T17:26:19.734Z,0.85
2023-05-01T17:29:22.066Z,0.93
2023-05-01T17:32:35.903Z,0.80
2023-05-01T17:35:39.538Z,0.77
2023-05-01T17:38:41.990Z,0.77
2023-05-01T17:41:44.408Z,0.68
2023-05-01T17:44:46.861Z,0.90
2023-05-01T17:47:49.279Z,0.80
2023-05-01T17:50:52.006Z,0.90
2023-05-01T17:53:54.448Z,1.10
2023-05-01T17:56:56.979Z,0.95
2023-05-01T17:59:59.857Z,1.42
2023-05-01T18:03:02.683Z,0.70
2023-05-01T18:06:05.228Z,0.93
2023-05-01T18:09:08.911Z,0.60
2023-05-01T18:12:11.411Z,0.70
2023-05-01T18:15:15.867Z,0.75
2023-05-01T18:18:22.367Z,0.70
2023-05-01T18:21:25.450Z,0.80
2023-05-01T18:24:27.809Z,0.70
2023-05-01T18:27:30.132Z,0.85
2023-05-01T18:30:33.153Z,1.13
2023-05-01T18:33:35.798Z,0.80
2023-05-01T18:36:39.582Z,0.70
2023-05-01T18:39:42.155Z,1.38
2023-05-01T18:42:44.520Z,1.17
2023-05-01T18:45:47.034Z,1.58
2023-05-01T18:48:49.565Z,1.53
2023-05-01T18:51:55.800Z,1.17
2023-05-01T18:54:58.390Z,1.40
2023-05-01T18:58:02.056Z,1.67
2023-05-01T19:01:04.614Z,0.88
2023-05-01T19:04:07.453Z,2.03
2023-05-01T19:07:10.148Z,1.70
2023-05-01T19:10:12.780Z,1.73
2023-05-01T19:13:15.330Z,1.67
2023-05-01T19:16:17.765Z,1.55
2023-05-01T19:19:20.364Z,1.03
2023-05-01T19:22:22.916Z,2.33
2023-05-01T19:25:25.574Z,1.67
2023-05-01T19:28:28.106Z,1.45
2023-05-01T19:31:30.760Z,1.75
2023-05-01T19:34:33.340Z,1.63
2023-05-01T19:37:36.482Z,2.60
2023-05-01T19:40:48.291Z,1.65
2023-05-01T19:43:51.027Z,1.20
2023-05-01T19:46:53.598Z,2.33
2023-05-01T19:49:56.089Z,1.40
2023-05-01T19:53:01.601Z,2.27
2023-05-01T19:56:03.963Z,2.42
2023-05-01T19:59:06.465Z,1.52
2023-05-01T20:02:09.028Z,1.75
2023-05-01T20:05:13.101Z,1.20
2023-05-01T20:08:15.618Z,0.83
2023-05-01T20:11:18.004Z,1.50
2023-05-01T20:14:20.398Z,1.50
2023-05-01T20:17:22.950Z,1.50
2023-05-01T20:20:25.409Z,1.27
2023-05-01T20:23:27.765Z,1.23
2023-05-01T20:26:30.151Z,0.95
2023-05-01T20:29:32.602Z,1.48
2023-05-01T20:32:35.159Z,1.42
2023-05-01T20:35:38.156Z,1.10
2023-05-01T20:38:43.104Z,1.10
2023-05-01T20:41:45.472Z,1.00
2023-05-01T20:44:47.825Z,1.60
2023-05-01T20:47:50.190Z,1.02
2023-05-01T20:50:53.817Z,1.33
2023-05-01T20:53:56.254Z,1.23
2023-05-01T20:56:58.965Z,1.75
2023-05-01T21:00:01.952Z,1.52
2023-05-01T21:03:04.970Z,1.25
2023-05-01T21:06:07.516Z,1.40
2023-05-01T21:09:13.336Z,0.90
2023-05-01T21:12:15.752Z,1.45
2023-05-01T21:15:18.166Z,1.00
2023-05-01T21:18:21.193Z,1.60
2023-05-01T21:21:25.028Z,0.90
2023-05-01T21:24:27.437Z,0.97
2023-05-01T21:27:29.789Z,1.88
2023-05-01T21:30:34.325Z,0.77
2023-05-01T21:33:37.640Z,1.25
2023-05-01T21:36:45.115Z,1.17
2023-05-01T21:39:47.504Z,0.90
2023-05-01T21:42:50.017Z,0.90
2023-05-01T21:45:52.735Z,0.70
2023-05-01T21:48:55.184Z,1.25
2023-05-01T21:52:01.581Z,1.30
2023-05-01T21:55:04.770Z,0.77
2023-05-01T21:58:07.194Z,1.35
2023-05-01T22:01:13.016Z,1.00
2023-05-01T22:04:18.256Z,0.90
2023-05-01T22:07:20.622Z,1.23
2023-05-01T22:10:22.929Z,0.93
2023-05-01T22:13:32.028Z,1.13
2023-05-01T22:16:34.601Z,1.08
2023-05-01T22:19:37.939Z,1.10
2023-05-01T22:22:41.325Z,1.33
2023-05-01T22:25:44.176Z,1.47
2023-05-01T22:28:46.577Z,0.80
2023-05-01T22:31:48.994Z,1.10
2023-05-01T22:34:51.350Z,0.80
2023-05-01T22:37:53.706Z,0.97
2023-05-01T22:40:56.051Z,0.93
2023-05-01T22:43:58.345Z,1.00
2023-05-01T22:47:00.775Z,0.82
2023-05-01T22:50:03.347Z,1.02
2023-05-01T22:53:05.846Z,0.90
2023-05-01T22:56:08.236Z,1.00
2023-05-01T22:59:10.694Z,0.70
2023-05-01T23:02:16.374Z,0.93
2023-05-01T23:05:18.776Z,1.05
2023-05-01T23:08:21.136Z,0.90
2023-05-01T23:11:31.032Z,1.00
2023-05-01T23:14:34.232Z,1.42
2023-05-01T23:17:36.667Z,0.98
2023-05-01T23:20:40.589Z,1.00
2023-05-01T23:23:43.537Z,1.33
2023-05-01T23:26:46.244Z,1.10
2023-05-01T23:29:56.556Z,0.93
2023-05-01T23:32:59.798Z,1.20
2023-05-01T23:36:02.162Z,0.70
2023-05-01T23:39:04.499Z,2.07
2023-05-01T23:42:07.120Z,1.30
2023-05-01T23:45:09.741Z,1.08
2023-05-01T23:48:12.768Z,0.95
2023-05-01T23:51:15.262Z,1.27
2023-05-01T23:54:17.597Z,0.90
2023-05-01T23:57:19.961Z,1.30
